Time;durP1;ratioP1;P1;durP2;ratioP2;P2;SDS_P1;SDS_P2;PMS_P1;PMS_P2;Temp;Humidity;BMP_temperature;BMP_pressure;BME280_temperature;BME280_humidity;BME280_pressure;Samples;Min_cycle;Max_cycle;Signal;HPM_P1;HPM_P2
2022/01/10 00:00:02;;;;;;;119.30;41.83;;;;;;;-2.28;100.00;100057.70;4902398;59;1143453;-76
2022/01/10 00:05:11;;;;;;;118.40;43.17;;;;;;;-2.31;100.00;100064.30;4901408;59;1145310;-73
2022/01/10 00:10:18;;;;;;;147.50;50.57;;;;;;;-2.31;100.00;100066.45;4931591;59;1145300;-80
2022/01/10 00:15:24;;;;;;;129.20;47.57;;;;;;;-2.29;100.00;100081.46;4976673;59;1145291;-74
2022/01/10 00:20:34;;;;;;;128.33;49.27;;;;;;;-2.31;100.00;100085.02;4977285;59;1145793;-73
2022/01/10 00:25:40;;;;;;;101.43;42.63;;;;;;;-2.34;100.00;100089.84;4991846;59;1145305;-73
2022/01/10 00:30:46;;;;;;;98.97;39.30;;;;;;;-2.37;100.00;100108.06;4995427;58;1145017;-74
2022/01/10 00:35:52;;;;;;;104.70;39.25;;;;;;;-2.37;100.00;100116.28;4996020;58;1143165;-72
2022/01/10 00:40:59;;;;;;;103.87;38.87;;;;;;;-2.37;100.00;100130.52;4996526;59;1145433;-74
2022/01/10 00:46:06;;;;;;;108.17;40.20;;;;;;;-2.38;100.00;100141.33;4995371;59;1145203;-75
2022/01/10 00:51:16;;;;;;;99.90;39.97;;;;;;;-2.43;100.00;100148.83;4995173;58;1145683;-74
2022/01/10 00:56:25;;;;;;;102.53;41.87;;;;;;;-2.45;100.00;100156.66;4995910;59;1143434;-75
2022/01/10 01:01:30;;;;;;;107.17;40.37;;;;;;;-2.59;100.00;100166.56;4995428;58;1145503;-77
2022/01/10 01:06:45;;;;;;;98.27;38.47;;;;;;;-2.67;100.00;100173.72;4995502;59;1145396;-74
2022/01/10 01:17:10;;;;;;;124.33;46.05;;;;;;;-2.57;100.00;100198.43;5020842;58;1145333;-74
2022/01/10 01:27:28;;;;;;;95.35;39.10;;;;;;;-2.65;100.00;100209.02;4923999;59;1141504;-71
2022/01/10 01:32:34;;;;;;;91.40;39.70;;;;;;;-2.75;100.00;100202.87;4923060;59;1141352;-73
2022/01/10 01:37:40;;;;;;;94.40;34.27;;;;;;;-2.84;100.00;100220.33;4928558;58;1141204;-74
2022/01/10 01:42:47;;;;;;;94.95;38.60;;;;;;;-2.93;100.00;100221.89;4922390;59;1141141;-75
2022/01/10 01:47:54;;;;;;;93.90;38.37;;;;;;;-2.94;100.00;100232.28;4933163;60;1141109;-74
2022/01/10 01:53:05;;;;;;;86.33;35.93;;;;;;;-2.86;100.00;100249.72;4922713;59;1141131;-74
2022/01/10 01:58:11;;;;;;;98.20;36.73;;;;;;;-2.88;100.00;100265.73;4922791;60;1141230;-75
2022/01/10 02:03:18;;;;;;;92.50;38.28;;;;;;;-2.92;100.00;100272.75;4933223;59;1141412;-73
2022/01/10 02:08:26;;;;;;;108.50;39.40;;;;;;;-2.94;100.00;100284.03;4932127;59;1141633;-73
2022/01/10 02:13:32;;;;;;;92.20;36.40;;;;;;;-2.94;100.00;100290.49;4917068;59;1143156;-74
2022/01/10 02:18:39;;;;;;;68.30;28.87;;;;;;;-2.91;100.00;100291.72;4917059;60;1141252;-77
2022/01/10 02:23:45;;;;;;;98.93;36.77;;;;;;;-2.97;100.00;100303.50;4923631;59;1140958;-68
2022/01/10 02:28:56;;;;;;;96.93;35.00;;;;;;;-3.05;100.00;100311.89;4967514;58;1141123;-71
2022/01/10 02:34:02;;;;;;;89.43;38.10;;;;;;;-2.99;100.00;100329.41;4955472;59;1138988;-73
2022/01/10 02:39:11;;;;;;;92.83;35.23;;;;;;;-3.02;100.00;100338.98;4955753;59;1139238;-73
2022/01/10 02:44:18;;;;;;;95.10;35.60;;;;;;;-3.01;100.00;100344.56;4954439;59;1143270;-70
2022/01/10 02:49:28;;;;;;;97.43;35.77;;;;;;;-3.06;100.00;100348.58;4954698;59;1143378;-76
2022/01/10 02:54:34;;;;;;;106.17;39.27;;;;;;;-3.09;100.00;100361.58;4955011;59;1143227;-79
2022/01/10 02:59:42;;;;;;;89.40;31.27;;;;;;;-3.17;100.00;100368.66;4952994;59;1145406;-70
2022/01/10 03:04:48;;;;;;;98.37;38.93;;;;;;;-3.26;100.00;100377.50;4955132;59;1143308;-73
2022/01/10 03:09:55;;;;;;;100.33;38.27;;;;;;;-3.25;100.00;100384.81;4962229;58;1143109;-70
2022/01/10 03:15:03;;;;;;;95.97;39.60;;;;;;;-3.23;100.00;100387.78;4991767;59;1145237;-75
2022/01/10 03:20:11;;;;;;;100.27;37.43;;;;;;;-3.21;100.00;100390.33;4991799;59;1143317;-78
2022/01/10 03:25:17;;;;;;;110.70;41.35;;;;;;;-3.23;100.00;100400.71;4991475;59;1145370;-74
2022/01/10 03:30:26;;;;;;;107.10;39.63;;;;;;;-3.20;100.00;100408.81;4991589;59;1145332;-78
2022/01/10 03:35:33;;;;;;;93.90;34.43;;;;;;;-3.21;100.00;100419.59;4984647;58;1145393;-73
2022/01/10 03:40:40;;;;;;;111.00;39.73;;;;;;;-3.24;100.00;100414.52;4991851;58;1143235;-73
2022/01/10 03:45:47;;;;;;;117.08;43.08;;;;;;;-3.23;100.00;100423.13;4900733;59;1145349;-74
2022/01/10 03:50:54;;;;;;;114.17;41.07;;;;;;;-3.20;100.00;100430.80;4900994;59;1145279;-78
2022/01/10 03:56:01;;;;;;;99.40;39.13;;;;;;;-3.22;100.00;100434.74;4901087;59;1145378;-70
2022/01/10 04:01:09;;;;;;;111.63;42.77;;;;;;;-3.22;100.00;100441.65;4901362;59;1143189;-74
2022/01/10 04:06:15;;;;;;;108.30;41.92;;;;;;;-3.22;100.00;100454.58;4901080;59;1145463;-72
2022/01/10 04:11:21;;;;;;;102.13;38.77;;;;;;;-3.23;100.00;100460.19;4926512;59;1145362;-74
2022/01/10 04:16:27;;;;;;;106.40;40.13;;;;;;;-3.20;100.00;100479.50;4943960;59;1145245;-72
2022/01/10 04:21:34;;;;;;;124.87;43.93;;;;;;;-3.21;100.00;100499.77;4943984;59;1145265;-70
2022/01/10 04:26:40;;;;;;;100.97;38.77;;;;;;;-3.23;100.00;100507.19;4943884;59;1145250;-78
2022/01/10 04:31:48;;;;;;;93.87;37.53;;;;;;;-3.20;100.00;100520.88;4915710;59;1145372;-69
2022/01/10 04:36:54;;;;;;;88.45;36.05;;;;;;;-3.21;100.00;100524.34;4943875;59;1143194;-73
2022/01/10 04:42:01;;;;;;;90.90;38.27;;;;;;;-3.22;100.00;100548.53;4943921;59;1143231;-74
2022/01/10 04:47:06;;;;;;;88.47;34.63;;;;;;;-3.24;100.00;100557.20;4943689;59;1143169;-73
2022/01/10 04:52:12;;;;;;;85.50;35.63;;;;;;;-3.29;100.00;100566.78;4943909;59;1143092;-76
2022/01/10 04:57:19;;;;;;;107.10;37.47;;;;;;;-3.35;100.00;100579.82;4943823;59;1143446;-71
2022/01/10 05:02:25;;;;;;;77.27;33.93;;;;;;;-3.35;100.00;100586.28;4943612;59;1145194;-76
2022/01/10 05:07:31;;;;;;;78.30;30.50;;;;;;;-3.34;100.00;100596.59;4943752;59;1143179;-72
2022/01/10 05:12:38;;;;;;;64.23;24.37;;;;;;;-3.42;100.00;100605.40;4947325;59;1143087;-67
2022/01/10 05:17:44;;;;;;;85.83;33.17;;;;;;;-3.51;100.00;100621.09;4947918;59;1143445;-77
2022/01/10 05:22:51;;;;;;;90.17;35.70;;;;;;;-3.61;100.00;100634.17;4947924;59;1143161;-74
2022/01/10 05:27:57;;;;;;;87.47;37.07;;;;;;;-3.63;100.00;100636.37;4947664;59;1143179;-74
2022/01/10 05:33:03;;;;;;;88.33;37.63;;;;;;;-3.58;100.00;100645.75;4947920;59;1143470;-75
2022/01/10 05:38:11;;;;;;;85.00;35.63;;;;;;;-3.49;100.00;100652.92;4947596;59;1141126;-73
2022/01/10 05:43:17;;;;;;;99.80;39.57;;;;;;;-3.41;100.00;100652.36;4947889;59;1141134;-73
2022/01/10 05:48:30;;;;;;;126.80;47.93;;;;;;;-3.31;100.00;100664.22;4947851;59;1141146;-75
2022/01/10 05:53:36;;;;;;;104.17;41.37;;;;;;;-3.20;100.00;100663.13;4947907;59;1143269;-72
2022/01/10 05:58:42;;;;;;;104.00;41.10;;;;;;;-3.14;100.00;100675.55;4947968;59;1143221;-72
2022/01/10 06:03:48;;;;;;;114.63;44.20;;;;;;;-3.23;100.00;100688.22;4947963;59;1143224;-73
2022/01/10 06:08:55;;;;;;;88.90;35.93;;;;;;;-3.29;100.00;100699.96;4928739;58;1143146;-72
2022/01/10 06:14:02;;;;;;;85.73;34.73;;;;;;;-3.25;100.00;100720.58;4899400;59;1141135;-74
2022/01/10 06:19:08;;;;;;;84.03;33.50;;;;;;;-3.30;100.00;100730.14;4948360;59;1141103;-77
2022/01/10 06:24:14;;;;;;;81.63;34.77;;;;;;;-3.27;100.00;100752.08;4948317;59;1141388;-72
2022/01/10 06:29:20;;;;;;;80.97;32.03;;;;;;;-3.33;100.00;100762.95;5057168;58;1141100;-74
2022/01/10 06:34:27;;;;;;;78.93;35.23;;;;;;;-3.40;100.00;100784.20;5081855;58;1141137;-72
2022/01/10 06:39:33;;;;;;;87.90;37.15;;;;;;;-3.46;100.00;100792.48;5081702;58;1141060;-76
2022/01/10 06:44:39;;;;;;;92.90;37.73;;;;;;;-3.51;100.00;100811.11;5041190;58;1141150;-72
2022/01/10 06:49:47;;;;;;;102.90;41.73;;;;;;;-3.44;100.00;100814.85;4999352;58;1141119;-72
2022/01/10 06:54:53;;;;;;;92.50;38.30;;;;;;;-3.44;100.00;100828.22;4971927;59;1141209;-68
2022/01/10 07:00:01;;;;;;;95.42;40.33;;;;;;;-3.48;100.00;100831.72;4971782;59;1139000;-70
2022/01/10 07:05:07;;;;;;;91.00;37.40;;;;;;;-3.46;100.00;100856.67;5022811;58;1143367;-71
2022/01/10 07:10:13;;;;;;;97.62;40.40;;;;;;;-3.51;100.00;100875.27;5049624;58;1143155;-69
2022/01/10 07:15:20;;;;;;;97.40;41.93;;;;;;;-3.52;100.00;100874.03;5052656;58;1143388;-75
2022/01/10 07:20:27;;;;;;;116.88;47.03;;;;;;;-3.47;100.00;100876.95;5050424;58;1143502;-71
2022/01/10 07:25:35;;;;;;;117.70;46.97;;;;;;;-3.44;100.00;100889.83;5042528;58;1145262;-67
2022/01/10 07:30:44;;;;;;;102.83;42.87;;;;;;;-3.42;100.00;100899.72;5059540;58;1145299;-72
2022/01/10 07:35:51;;;;;;;100.77;41.33;;;;;;;-3.35;100.00;100908.22;5072636;58;1145296;-75
2022/01/10 07:40:57;;;;;;;91.07;39.50;;;;;;;-3.37;100.00;100929.40;5073840;58;1145520;-68
2022/01/10 07:46:03;;;;;;;97.53;41.70;;;;;;;-3.42;100.00;100937.64;5062928;58;1143175;-78
2022/01/10 07:51:11;;;;;;;87.97;37.00;;;;;;;-3.42;100.00;100957.90;5067526;58;1143456;-72
2022/01/10 07:56:17;;;;;;;66.50;29.13;;;;;;;-3.38;100.00;100978.11;5063890;58;1143264;-72
2022/01/10 08:01:23;;;;;;;98.17;40.43;;;;;;;-3.34;100.00;100988.38;5050221;58;1143275;-73
2022/01/10 08:06:38;;;;;;;94.97;41.10;;;;;;;-3.31;100.00;100982.31;5025717;58;1143422;-77
2022/01/10 08:11:46;;;;;;;107.43;40.37;;;;;;;-3.30;100.00;100996.52;5050300;58;1143237;-74
2022/01/10 08:16:52;;;;;;;101.03;41.73;;;;;;;-3.22;100.00;101010.66;5073260;58;1145317;-74
2022/01/10 08:21:59;;;;;;;173.93;78.47;;;;;;;-3.12;100.00;101017.84;5073441;58;1145235;-70
2022/01/10 08:27:06;;;;;;;276.03;109.53;;;;;;;-3.03;100.00;101025.46;5076224;58;1145357;-73
2022/01/10 08:32:12;;;;;;;167.00;74.47;;;;;;;-2.96;100.00;101029.25;5020893;58;1147373;-70
2022/01/10 08:37:18;;;;;;;140.53;62.03;;;;;;;-2.88;100.00;101051.98;4890786;59;1145209;-75
2022/01/10 08:42:26;;;;;;;90.33;37.47;;;;;;;-2.78;100.00;101052.72;4890727;60;1145233;-75
2022/01/10 08:47:32;;;;;;;119.97;46.80;;;;;;;-2.72;100.00;101069.44;4945128;58;1143137;-75
2022/01/10 08:52:39;;;;;;;145.87;61.63;;;;;;;-2.70;100.00;101077.19;4960769;58;1145315;-78
2022/01/10 08:57:45;;;;;;;95.93;42.33;;;;;;;-2.60;100.00;101092.59;4956991;58;1145300;-75
2022/01/10 09:02:51;;;;;;;146.80;72.63;;;;;;;-2.51;100.00;101108.42;4920685;59;1143163;-71
2022/01/10 09:07:58;;;;;;;97.33;48.37;;;;;;;-2.49;100.00;101106.23;4956974;58;1145475;-75
2022/01/10 09:13:06;;;;;;;170.90;65.13;;;;;;;-2.36;100.00;101127.62;4933395;58;1143167;-72
2022/01/10 09:18:11;;;;;;;141.07;46.07;;;;;;;-2.29;100.00;101154.30;4958920;58;1145213;-71
2022/01/10 09:23:17;;;;;;;127.27;52.50;;;;;;;-2.18;100.00;101160.16;4979135;58;1145192;-74
2022/01/10 09:28:24;;;;;;;207.30;78.13;;;;;;;-2.18;100.00;101164.91;4985521;59;1145391;-72
2022/01/10 09:33:30;;;;;;;401.33;150.70;;;;;;;-2.13;100.00;101170.00;5003141;57;1145102;-74
2022/01/10 09:38:36;;;;;;;195.37;78.47;;;;;;;-2.08;100.00;101179.01;5043337;58;1147474;-73
2022/01/10 09:43:47;;;;;;;328.23;109.73;;;;;;;-1.98;100.00;101178.83;5094175;58;1145454;-78
2022/01/10 09:48:54;;;;;;;153.20;55.03;;;;;;;-1.87;100.00;101190.35;5064648;58;1147316;-78
2022/01/10 09:54:01;;;;;;;109.80;50.27;;;;;;;-1.83;100.00;101201.92;4986851;58;1144951;-71
2022/01/10 09:59:07;;;;;;;117.47;49.40;;;;;;;-1.80;100.00;101210.95;4986791;58;1144888;-74
2022/01/10 10:04:14;;;;;;;127.10;48.07;;;;;;;-1.76;100.00;101215.66;4982416;58;1144824;-75
2022/01/10 10:09:21;;;;;;;184.52;61.42;;;;;;;-1.66;100.00;101224.13;4985636;58;1145090;-75
2022/01/10 10:14:27;;;;;;;313.53;127.57;;;;;;;-1.59;100.00;101226.62;4957480;58;1144850;-80
2022/01/10 10:19:33;;;;;;;159.47;71.07;;;;;;;-1.49;100.00;101235.95;4957225;58;1146924;-77
2022/01/10 10:24:39;;;;;;;90.93;44.60;;;;;;;-1.38;100.00;101247.47;4957400;58;1144943;-78
2022/01/10 10:29:46;;;;;;;88.37;40.13;;;;;;;-1.25;100.00;101255.45;4957798;58;1142945;-82
2022/01/10 10:34:58;;;;;;;119.60;50.57;;;;;;;-1.18;100.00;101260.07;4935159;58;1142869;-75
2022/01/10 10:40:09;;;;;;;184.47;89.03;;;;;;;-1.09;100.00;101275.50;4946006;58;1144848;-81
2022/01/10 10:45:16;;;;;;;108.92;55.45;;;;;;;-1.08;100.00;101287.16;4924993;58;1144844;-76
2022/01/10 10:50:34;;;;;;;99.30;43.23;;;;;;;-1.05;100.00;101290.11;4917170;58;1145009;-80
2022/01/10 10:55:47;;;;;;;77.63;34.87;;;;;;;-1.07;100.00;101301.00;4908405;58;1142965;-78
2022/01/10 11:00:56;;;;;;;108.45;51.55;;;;;;;-1.00;100.00;101299.13;5044378;58;1143128;-79
2022/01/10 11:06:05;;;;;;;108.72;51.23;;;;;;;-0.94;100.00;101305.08;4949590;57;1145107;-81
2022/01/10 11:11:12;;;;;;;86.27;36.73;;;;;;;-0.89;100.00;101314.92;4927477;58;1145024;-79
2022/01/10 11:16:18;;;;;;;86.97;38.63;;;;;;;-0.84;100.00;101322.20;4877097;58;1143053;-79
2022/01/10 11:21:26;;;;;;;94.95;42.98;;;;;;;-0.80;100.00;101342.48;4883750;59;1142874;-81
2022/01/10 11:26:40;;;;;;;85.87;39.20;;;;;;;-0.76;100.00;101341.09;4861664;58;1142936;-79
2022/01/10 11:31:46;;;;;;;85.20;39.03;;;;;;;-0.72;100.00;101350.55;4863535;59;1142939;-79
2022/01/10 11:36:55;;;;;;;81.40;36.87;;;;;;;-0.64;100.00;101356.05;4873281;58;1143006;-80
2022/01/10 11:42:00;;;;;;;87.63;38.30;;;;;;;-0.54;100.00;101365.38;4859566;58;1143087;-81
2022/01/10 11:47:05;;;;;;;96.43;43.10;;;;;;;-0.44;100.00;101374.27;4787847;58;1143074;-81
2022/01/10 11:52:13;;;;;;;83.33;39.13;;;;;;;-0.28;100.00;101376.58;4834836;58;1142980;-78
2022/01/10 11:57:19;;;;;;;123.43;61.07;;;;;;;-0.02;100.00;101388.20;4835176;58;1143083;-78
2022/01/10 12:02:26;;;;;;;87.17;43.73;;;;;;;0.28;100.00;101395.81;4878875;58;1145016;-78
2022/01/10 12:07:31;;;;;;;91.00;45.13;;;;;;;0.57;100.00;101398.22;4913012;58;1141046;-78
2022/01/10 12:12:42;;;;;;;75.47;36.13;;;;;;;0.73;100.00;101407.39;4883633;58;1140867;-80
2022/01/10 12:17:47;;;;;;;75.00;35.93;;;;;;;0.88;100.00;101412.69;4894777;58;1141115;-82
2022/01/10 12:22:58;;;;;;;82.83;38.77;;;;;;;0.94;100.00;101423.80;4900992;58;1140702;-80
2022/01/10 12:28:07;;;;;;;89.90;45.00;;;;;;;1.09;99.59;101430.84;4871178;58;1140889;-82
2022/01/10 12:33:12;;;;;;;85.03;41.77;;;;;;;1.23;99.06;101447.84;4882377;58;1138753;-80
2022/01/10 12:38:23;;;;;;;86.67;41.83;;;;;;;1.29;98.92;101454.67;4913223;58;1138942;-78
2022/01/10 12:43:29;;;;;;;83.07;40.13;;;;;;;1.35;98.18;101462.35;4943396;58;1138974;-77
2022/01/10 12:48:35;;;;;;;75.30;35.33;;;;;;;1.21;95.61;101470.51;4954195;58;1138738;-78
2022/01/10 12:53:47;;;;;;;86.07;39.20;;;;;;;1.01;94.82;101489.20;4958670;58;1138695;-80
2022/01/10 12:58:50;;;;;;;80.85;36.05;;;;;;;0.50;95.03;101509.39;4956187;58;1138882;-78
2022/01/10 13:04:02;;;;;;;113.37;48.00;;;;;;;-0.10;95.73;101534.38;4962051;58;1138766;-80
2022/01/10 13:09:08;;;;;;;83.10;35.13;;;;;;;-0.62;96.96;101541.33;4958099;58;1142998;-79
2022/01/10 13:14:21;;;;;;;88.80;38.60;;;;;;;-0.97;99.01;101551.78;4948785;58;1140868;-80
2022/01/10 13:19:30;;;;;;;108.60;48.33;;;;;;;-1.20;100.00;101565.05;4984178;58;1140821;-79
2022/01/10 13:24:54;;;;;;;101.20;44.63;;;;;;;-1.36;100.00;101571.30;4906958;58;1145161;-77
2022/01/10 13:30:12;;;;;;;112.95;47.75;;;;;;;-1.48;100.00;101583.98;4937850;58;1144977;-77
2022/01/10 13:35:20;;;;;;;102.97;44.33;;;;;;;-1.53;100.00;101602.63;4906853;58;1144888;-78
2022/01/10 13:40:31;;;;;;;102.47;46.10;;;;;;;-1.55;100.00;101606.14;4850442;58;1145035;-77
2022/01/10 13:46:00;;;;;;;88.67;39.10;;;;;;;-1.60;100.00;101608.77;4791927;58;1207182;-76
2022/01/10 13:51:12;;;;;;;100.80;46.53;;;;;;;-1.65;100.00;101618.32;4821094;58;1142965;-78
2022/01/10 13:56:33;;;;;;;108.83;51.23;;;;;;;-1.73;100.00;101625.77;4791562;58;1145060;-77
2022/01/10 14:01:44;;;;;;;93.15;44.33;;;;;;;-1.70;100.00;101640.87;4819489;58;1145109;-78
2022/01/10 14:06:49;;;;;;;76.82;36.98;;;;;;;-1.70;100.00;101651.67;4845189;58;1143110;-78
2022/01/10 14:11:55;;;;;;;159.83;61.70;;;;;;;-1.72;100.00;101663.36;4912977;58;1143146;-79
2022/01/10 14:17:01;;;;;;;84.73;39.07;;;;;;;-1.75;100.00;101676.34;4915052;58;1145162;-79
2022/01/10 14:22:08;;;;;;;64.27;27.13;;;;;;;-1.78;100.00;101685.44;4994262;58;1142952;-79
2022/01/10 14:27:14;;;;;;;96.63;43.20;;;;;;;-1.80;100.00;101697.11;4990531;57;1143031;-79
2022/01/10 14:32:19;;;;;;;79.47;35.53;;;;;;;-1.80;100.00;101704.89;4983708;58;1142992;-78
2022/01/10 14:37:26;;;;;;;76.47;37.00;;;;;;;-1.82;100.00;101720.03;4983985;58;1143344;-78
2022/01/10 14:42:32;;;;;;;70.67;32.37;;;;;;;-1.86;100.00;101729.59;4983817;57;1143342;-80
2022/01/10 14:47:42;;;;;;;80.90;33.67;;;;;;;-1.88;100.00;101733.06;4974212;58;1143181;-76
2022/01/10 14:52:48;;;;;;;74.77;33.90;;;;;;;-1.93;100.00;101754.27;4972365;58;1142994;-80
2022/01/10 14:57:54;;;;;;;73.90;31.70;;;;;;;-1.92;100.00;101762.47;4943716;57;1143314;-78
2022/01/10 15:03:00;;;;;;;73.80;30.17;;;;;;;-1.93;100.00;101773.27;4940566;58;1143056;-80
2022/01/10 15:08:05;;;;;;;59.23;25.03;;;;;;;-1.99;100.00;101779.81;4905500;58;1142921;-79
2022/01/10 15:13:11;;;;;;;63.60;27.70;;;;;;;-2.02;100.00;101782.41;4949710;57;1143126;-80
2022/01/10 15:18:21;;;;;;;61.97;26.67;;;;;;;-2.02;100.00;101798.40;4933278;58;1143163;-81
2022/01/10 15:23:24;;;;;;;49.67;20.47;;;;;;;-1.99;100.00;101804.44;4927088;58;1143300;-76
2022/01/10 15:28:30;;;;;;;51.90;24.17;;;;;;;-1.96;100.00;101819.08;4894960;58;1142890;-78
2022/01/10 15:33:36;;;;;;;48.25;23.12;;;;;;;-1.95;100.00;101819.52;4910980;58;1142814;-78
2022/01/10 15:38:44;;;;;;;45.23;20.83;;;;;;;-1.93;100.00;101837.22;4882689;58;1143298;-78
2022/01/10 15:43:51;;;;;;;41.77;20.17;;;;;;;-1.98;100.00;101838.96;4927176;57;1142999;-78
2022/01/10 15:48:57;;;;;;;113.27;46.87;;;;;;;-1.99;100.00;101839.87;4946680;58;1143100;-79
2022/01/10 15:54:03;;;;;;;92.87;39.03;;;;;;;-1.93;100.00;101859.26;4947718;58;1145099;-81
2022/01/10 15:59:09;;;;;;;62.50;29.27;;;;;;;-1.87;100.00;101867.02;4893750;58;1143071;-78
2022/01/10 16:04:15;;;;;;;61.67;29.90;;;;;;;-1.84;100.00;101870.90;4916640;58;1143117;-78
2022/01/10 16:09:21;;;;;;;84.73;44.87;;;;;;;-1.84;100.00;101871.77;4988191;57;1142992;-81
2022/01/10 16:14:29;;;;;;;61.73;33.80;;;;;;;-1.81;100.00;101892.89;4932296;58;1143309;-81
2022/01/10 16:19:35;;;;;;;52.27;25.50;;;;;;;-1.80;100.00;101905.00;4956109;58;1143076;-82
2022/01/10 16:24:42;;;;;;;37.50;18.27;;;;;;;-1.83;100.00;101914.08;4925274;58;1143026;-78
2022/01/10 16:29:50;;;;;;;58.60;24.13;;;;;;;-1.85;100.00;101922.33;4903811;58;1143003;-79
2022/01/10 16:35:00;;;;;;;48.87;21.23;;;;;;;-1.89;100.00;101938.76;4964260;58;1142947;-77
2022/01/10 16:40:15;;;;;;;48.80;21.50;;;;;;;-1.91;100.00;101950.42;4970448;57;1142936;-81
2022/01/10 16:45:20;;;;;;;68.07;30.50;;;;;;;-1.94;100.00;101964.69;4969852;58;1142906;-82
2022/01/10 16:50:27;;;;;;;75.13;34.57;;;;;;;-1.94;100.00;101976.36;4948689;58;1142842;-82
2022/01/10 16:55:34;;;;;;;83.60;37.10;;;;;;;-1.88;100.00;101984.56;4989814;58;1142762;-77
2022/01/10 17:00:41;;;;;;;59.63;24.95;;;;;;;-1.91;100.00;101994.94;4963592;58;1142693;-79
2022/01/10 17:05:48;;;;;;;98.43;41.27;;;;;;;-1.96;100.00;102005.30;4925973;58;1142979;-75
2022/01/10 17:10:56;;;;;;;91.57;37.15;;;;;;;-2.01;100.00;102010.95;4978842;57;1143071;-74
2022/01/10 17:16:03;;;;;;;117.65;48.25;;;;;;;-1.99;100.00;102027.81;4987536;57;1142847;-72
2022/01/10 17:21:08;;;;;;;113.63;54.20;;;;;;;-2.07;100.00;102027.80;4987736;57;1144857;-83
2022/01/10 17:26:14;;;;;;;92.03;42.80;;;;;;;-2.05;100.00;102035.58;4972573;57;1144980;-84
2022/01/10 17:31:20;;;;;;;97.10;45.15;;;;;;;-2.07;100.00;102034.28;4987636;58;1142923;-80
2022/01/10 17:36:28;;;;;;;100.80;41.70;;;;;;;-2.03;100.00;102041.20;4978915;58;1142963;-76
2022/01/10 17:41:34;;;;;;;82.63;34.20;;;;;;;-1.99;100.00;102049.84;4956125;58;1145070;-80
2022/01/10 17:46:41;;;;;;;120.83;43.53;;;;;;;-1.95;100.00;102056.30;4932512;58;1141158;-74
2022/01/10 17:51:59;;;;;;;102.20;37.40;;;;;;;-1.98;100.00;102064.07;4863905;59;1143355;-73
2022/01/10 17:56:58;;;;;;;86.87;36.23;;;;;;;-1.88;100.00;102078.77;4825574;60;1143299;-69
2022/01/10 18:02:05;;;;;;;78.63;34.50;;;;;;;-1.81;100.00;102082.20;4808883;60;1141240;-75
2022/01/10 18:07:12;;;;;;;91.90;35.63;;;;;;;-1.80;100.00;102095.16;4798332;60;1139125;-79
2022/01/10 18:12:18;;;;;;;105.53;37.70;;;;;;;-1.81;100.00;102088.25;4847369;59;21144;-76
2022/01/10 18:17:24;;;;;;;111.90;42.27;;;;;;;-1.82;100.00;102099.92;4972434;58;1141153;-73
2022/01/10 18:22:35;;;;;;;80.00;28.90;;;;;;;-1.85;100.00;102107.73;5011847;58;1145476;-77
2022/01/10 18:27:40;;;;;;;70.47;30.00;;;;;;;-1.84;100.00;102114.64;5012089;58;1143037;-70
2022/01/10 18:32:49;;;;;;;67.90;28.60;;;;;;;-1.91;100.00;102113.77;5015620;58;1143082;-74
2022/01/10 18:38:00;;;;;;;73.23;28.70;;;;;;;-1.96;100.00;102130.18;4980339;58;1143064;-80
2022/01/10 18:43:02;;;;;;;69.10;29.37;;;;;;;-1.97;100.00;102133.20;5010817;58;1143325;-89
2022/01/10 18:48:09;;;;;;;87.30;36.60;;;;;;;-1.97;100.00;102146.60;5030891;58;1143155;-80
2022/01/10 18:53:15;;;;;;;87.17;35.23;;;;;;;-2.04;100.00;102156.13;5039710;58;1143162;-78
2022/01/10 18:58:21;;;;;;;81.77;34.77;;;;;;;-2.11;100.00;102166.05;5039526;58;1143388;-77
2022/01/10 19:03:27;;;;;;;85.17;37.20;;;;;;;-2.16;100.00;102167.36;5045811;58;1143473;-77
2022/01/10 19:08:33;;;;;;;83.40;34.03;;;;;;;-2.24;100.00;102182.02;5050299;57;1143411;-77
2022/01/10 19:13:39;;;;;;;87.50;34.70;;;;;;;-2.35;100.00;102196.69;5043986;58;1143311;-80
2022/01/10 19:18:44;;;;;;;89.13;38.00;;;;;;;-2.45;100.00;102211.78;5044523;58;1143529;-71
2022/01/10 19:23:53;;;;;;;80.97;33.53;;;;;;;-2.54;100.00;102216.48;5070143;58;1143348;-73
2022/01/10 19:29:01;;;;;;;83.63;34.27;;;;;;;-2.56;100.00;102223.81;5087926;58;1143417;-76
2022/01/10 19:34:06;;;;;;;89.20;34.80;;;;;;;-2.64;100.00;102228.98;5088130;58;1143487;-81
2022/01/10 19:39:14;;;;;;;83.40;32.80;;;;;;;-2.71;100.00;102231.09;5088106;58;1143272;-72
2022/01/10 19:44:20;;;;;;;88.30;35.47;;;;;;;-2.74;100.00;102227.62;5025648;58;1143349;-91
2022/01/10 19:49:26;;;;;;;90.23;34.40;;;;;;;-2.84;100.00;102226.30;5006596;58;1143249;-75
2022/01/10 19:54:31;;;;;;;94.53;33.37;;;;;;;-2.82;100.00;102238.38;5019754;58;1143170;-81
2022/01/10 19:59:37;;;;;;;79.33;33.80;;;;;;;-2.86;100.00;102238.36;5056476;58;1143338;-82
2022/01/10 20:04:43;;;;;;;94.00;35.80;;;;;;;-2.95;100.00;102258.17;5046948;58;1143131;-75
2022/01/10 20:09:48;;;;;;;157.77;64.93;;;;;;;-3.04;100.00;102256.80;5009465;58;1143233;-76
2022/01/10 20:14:54;;;;;;;180.63;70.47;;;;;;;-2.96;100.00;102264.20;5005792;58;1145190;-73
2022/01/10 20:20:00;;;;;;;341.47;109.97;;;;;;;-2.87;100.00;102275.46;5079726;58;1145178;-76
2022/01/10 20:25:09;;;;;;;385.10;118.70;;;;;;;-2.78;100.00;102284.16;5078565;58;1147363;-82
2022/01/10 20:30:17;;;;;;;277.77;97.83;;;;;;;-2.79;100.00;102287.59;5075892;58;1147538;-77
2022/01/10 20:35:26;;;;;;;248.93;87.07;;;;;;;-2.69;100.00;102308.36;4964762;59;1144819;-75
2022/01/10 20:40:32;;;;;;;240.60;83.77;;;;;;;-2.66;100.00;102310.98;5086672;57;1145528;-78
2022/01/10 20:45:40;;;;;;;248.20;93.80;;;;;;;-2.66;100.00;102319.17;5051439;58;1145424;-74
2022/01/10 20:50:46;;;;;;;396.27;145.50;;;;;;;-2.68;100.00;102322.17;5034967;58;1145250;-75
2022/01/10 20:55:52;;;;;;;444.13;148.40;;;;;;;-2.71;100.00;102330.79;4928841;59;1147469;-76
2022/01/10 21:00:58;;;;;;;488.83;158.93;;;;;;;-2.75;100.00;102335.97;5036674;58;1147384;-78
2022/01/10 21:06:04;;;;;;;407.70;125.43;;;;;;;-2.79;100.00;102340.67;4945926;59;1147614;-84
2022/01/10 21:11:11;;;;;;;340.60;103.27;;;;;;;-2.80;100.00;102352.75;5123983;57;1147743;-76
2022/01/10 21:16:19;;;;;;;581.57;173.20;;;;;;;-2.87;100.00;102360.89;5160132;57;1145186;-74
2022/01/10 21:21:25;;;;;;;547.17;158.40;;;;;;;-2.93;100.00;102367.77;5012637;58;1145441;-81
2022/01/10 21:26:38;;;;;;;355.70;113.27;;;;;;;-3.06;99.94;102370.70;4996754;58;1145249;-76
2022/01/10 21:31:44;;;;;;;282.07;98.40;;;;;;;-3.13;100.00;102376.66;5004882;58;1143379;-82
2022/01/10 21:36:50;;;;;;;250.20;90.33;;;;;;;-3.16;100.00;102378.35;5005148;58;1143114;-71
2022/01/10 21:41:55;;;;;;;233.07;85.43;;;;;;;-3.20;100.00;102383.49;5008792;58;1143148;-77
2022/01/10 21:47:01;;;;;;;257.67;91.27;;;;;;;-3.22;100.00;102391.70;5064535;58;1143165;-83
2022/01/10 21:52:07;;;;;;;351.80;114.07;;;;;;;-3.22;100.00;102395.58;5004408;58;1143109;-81
2022/01/10 21:57:13;;;;;;;412.17;141.10;;;;;;;-3.23;99.85;102400.73;5072825;58;1144741;-73
2022/01/10 22:02:20;;;;;;;406.87;130.07;;;;;;;-3.24;99.79;102406.77;5074473;58;1143133;-75
2022/01/10 22:07:27;;;;;;;301.30;102.60;;;;;;;-3.26;99.38;102415.80;5051124;58;1143065;-83
2022/01/10 22:12:32;;;;;;;286.13;96.07;;;;;;;-3.32;99.18;102412.27;5054512;58;1143254;-70
2022/01/10 22:17:39;;;;;;;210.20;80.00;;;;;;;-3.35;99.06;102414.40;5015469;58;1141040;-81
2022/01/10 22:22:46;;;;;;;197.80;73.93;;;;;;;-3.40;98.88;102414.80;5021753;58;1141302;-81
2022/01/10 22:27:52;;;;;;;206.00;73.40;;;;;;;-3.46;98.77;102416.45;5035075;58;1141074;-76
2022/01/10 22:32:58;;;;;;;204.83;74.70;;;;;;;-3.51;98.47;102424.61;5029582;58;1141076;-85